Terminal Aerodrome Forecast
Issued by NWS

Home | Current Version | Previous Version | Text Only | Print | Product List | Glossary On
Versions: 1 2 3 4 5 6 7 8 9 10 11 12 13 14 15 16 17 18 19 20
000
FTUS43 KILX 040713 AAA
TAFBMI
TAF AMD
KBMI 040713Z 0407/0506 20011KT P6SM VCSH SCT060 BKN100
     FM040900 20013KT P6SM VCTS BKN060CB
     FM041400 23013KT P6SM BKN060
     FM050000 18007KT P6SM BKN050=

USA.gov is the U.S. government's official web portal to all federal, state and local government web resources and services.